createdAt,value
2018-12-30T00:02:17.894Z,48.30
2018-12-30T00:04:47.351Z,48.20
2018-12-30T00:07:16.985Z,48.10
2018-12-30T00:09:46.206Z,47.80
2018-12-30T00:12:15.924Z,47.40
2018-12-30T00:14:45.122Z,47.60
2018-12-30T00:17:14.393Z,47.30
2018-12-30T00:19:43.648Z,47.20
2018-12-30T00:22:12.861Z,47.20
2018-12-30T00:24:42.141Z,47.70
2018-12-30T00:27:11.389Z,47.80
2018-12-30T00:29:40.585Z,48.00
2018-12-30T00:32:09.853Z,47.90
2018-12-30T00:34:39.399Z,48.10
2018-12-30T00:37:08.622Z,48.10
2018-12-30T00:39:37.894Z,47.90
2018-12-30T00:42:08.705Z,47.90
2018-12-30T00:44:37.915Z,47.80
2018-12-30T00:47:07.175Z,47.50
2018-12-30T00:49:36.358Z,47.70
2018-12-30T00:52:05.574Z,47.80
2018-12-30T00:54:34.797Z,48.20
2018-12-30T00:57:03.982Z,48.00
2018-12-30T00:59:33.202Z,48.00
2018-12-30T01:02:02.946Z,47.80
2018-12-30T01:04:32.154Z,48.50
2018-12-30T01:07:01.401Z,48.90
2018-12-30T01:09:30.598Z,48.90
2018-12-30T01:11:59.881Z,49.00
2018-12-30T01:14:29.575Z,49.00
2018-12-30T01:16:58.782Z,48.90
2018-12-30T01:19:27.993Z,48.70
2018-12-30T01:21:57.187Z,49.20
2018-12-30T01:24:26.446Z,48.40
2018-12-30T01:26:55.665Z,48.20
2018-12-30T01:29:25.259Z,48.00
2018-12-30T01:31:54.509Z,47.50
2018-12-30T01:34:24.061Z,47.30
2018-12-30T01:36:53.242Z,47.10
2018-12-30T01:39:22.549Z,47.10
2018-12-30T01:41:51.770Z,46.70
2018-12-30T01:44:20.984Z,46.70
2018-12-30T01:46:50.221Z,46.90
2018-12-30T01:49:19.419Z,46.90
2018-12-30T01:51:48.618Z,46.70
2018-12-30T01:54:17.921Z,47.10
2018-12-30T01:56:47.138Z,47.30
2018-12-30T01:59:16.345Z,47.60
2018-12-30T02:01:45.906Z,47.90
2018-12-30T02:04:15.141Z,48.00
2018-12-30T02:06:44.989Z,48.10
2018-12-30T02:09:14.230Z,47.90
2018-12-30T02:11:43.481Z,47.90
2018-12-30T02:14:12.650Z,48.00
2018-12-30T02:16:41.887Z,48.00
2018-12-30T02:19:11.439Z,47.90
2018-12-30T02:21:41.175Z,47.80
2018-12-30T02:24:10.695Z,47.90
2018-12-30T02:26:40.168Z,47.90
2018-12-30T02:29:09.342Z,48.00
2018-12-30T02:31:38.854Z,48.00
2018-12-30T02:34:08.066Z,48.00
2018-12-30T02:36:37.307Z,48.10
2018-12-30T02:39:07.010Z,48.00
2018-12-30T02:41:36.187Z,48.20
2018-12-30T02:44:05.389Z,48.20
2018-12-30T02:46:34.985Z,48.20
2018-12-30T02:49:04.179Z,48.20
2018-12-30T02:51:33.400Z,48.20
2018-12-30T02:54:02.631Z,48.00
2018-12-30T02:56:31.919Z,47.80
2018-12-30T02:59:01.189Z,47.70
2018-12-30T03:01:30.383Z,47.40
2018-12-30T03:03:59.594Z,47.30
2018-12-30T03:06:29.023Z,47.10
2018-12-30T03:08:58.190Z,46.90
2018-12-30T03:11:27.409Z,46.70
2018-12-30T03:13:56.629Z,46.60
2018-12-30T03:16:25.811Z,46.60
2018-12-30T03:18:55.028Z,46.50
2018-12-30T03:21:24.250Z,46.50
2018-12-30T03:23:53.459Z,46.80
2018-12-30T03:26:22.679Z,47.20
2018-12-30T03:28:51.907Z,47.40
2018-12-30T03:31:21.109Z,47.50
2018-12-30T03:33:50.335Z,47.70
2018-12-30T03:36:19.497Z,47.80
2018-12-30T03:38:48.626Z,47.70
2018-12-30T03:41:17.859Z,47.70
2018-12-30T03:43:47.078Z,47.70
2018-12-30T03:46:16.294Z,47.60
2018-12-30T03:48:45.689Z,47.80
2018-12-30T03:51:14.865Z,47.60
2018-12-30T03:53:44.102Z,47.60
2018-12-30T03:56:13.283Z,47.70
2018-12-30T03:58:42.548Z,47.80
2018-12-30T04:01:11.748Z,47.90
2018-12-30T04:03:41.245Z,47.80
2018-12-30T04:06:10.449Z,47.90
2018-12-30T04:08:39.667Z,47.80
2018-12-30T04:11:08.885Z,47.70
2018-12-30T04:13:38.072Z,47.70
2018-12-30T04:16:07.206Z,47.50
2018-12-30T04:18:36.422Z,47.60
2018-12-30T04:21:05.627Z,47.60
2018-12-30T04:23:34.897Z,47.20
2018-12-30T04:26:04.109Z,47.00
2018-12-30T04:28:33.280Z,46.70
2018-12-30T04:31:03.119Z,46.90
2018-12-30T04:33:32.301Z,46.60
2018-12-30T04:36:01.427Z,46.40
2018-12-30T04:38:30.680Z,46.40
2018-12-30T04:40:59.886Z,46.20
2018-12-30T04:43:29.145Z,46.30
2018-12-30T04:45:58.357Z,46.20
2018-12-30T04:48:27.541Z,46.00
2018-12-30T04:50:57.072Z,46.10
2018-12-30T04:53:26.266Z,46.00
2018-12-30T04:55:55.498Z,46.20
2018-12-30T04:58:24.712Z,46.20
2018-12-30T05:00:54.026Z,46.20
2018-12-30T05:03:23.182Z,46.80
2018-12-30T05:05:52.358Z,46.90
2018-12-30T05:08:21.964Z,47.10
2018-12-30T05:10:51.167Z,47.00
2018-12-30T05:13:20.742Z,47.20
2018-12-30T05:15:49.986Z,47.10
2018-12-30T05:18:19.179Z,47.40
2018-12-30T05:20:48.387Z,47.10
2018-12-30T05:23:18.015Z,47.10
2018-12-30T05:25:47.219Z,46.90
2018-12-30T05:28:16.433Z,46.90
2018-12-30T05:30:45.905Z,47.00
2018-12-30T05:33:15.061Z,47.10
2018-12-30T05:35:44.289Z,47.00
2018-12-30T05:38:13.528Z,47.30
2018-12-30T05:40:42.713Z,47.60
2018-12-30T05:43:11.908Z,47.70
2018-12-30T05:45:41.150Z,47.60
2018-12-30T05:48:10.325Z,47.70
2018-12-30T05:50:39.494Z,47.70
2018-12-30T05:53:08.646Z,47.70
2018-12-30T05:55:37.853Z,47.70
2018-12-30T05:58:07.069Z,47.70
2018-12-30T06:00:36.258Z,47.70
2018-12-30T06:03:05.446Z,48.30
2018-12-30T06:05:34.619Z,47.60
2018-12-30T06:08:03.814Z,47.40
2018-12-30T06:10:33.014Z,47.30
2018-12-30T06:13:02.259Z,47.20
2018-12-30T06:15:31.473Z,47.10
2018-12-30T06:18:00.676Z,47.20
2018-12-30T06:20:29.953Z,47.20
2018-12-30T06:22:59.111Z,47.10
2018-12-30T06:25:28.298Z,47.10
2018-12-30T06:27:57.513Z,49.50
2018-12-30T06:30:26.730Z,49.40
2018-12-30T06:32:55.948Z,48.50
2018-12-30T06:35:25.183Z,48.00
2018-12-30T06:37:54.410Z,47.90
2018-12-30T06:40:23.642Z,48.00
2018-12-30T06:42:52.811Z,48.20
2018-12-30T06:45:24.874Z,48.40
2018-12-30T06:47:54.111Z,48.70
2018-12-30T06:50:23.291Z,48.70
2018-12-30T06:52:57.597Z,48.70
2018-12-30T06:55:23.372Z,48.80
2018-12-30T06:57:52.594Z,48.80
2018-12-30T07:00:21.894Z,48.80
2018-12-30T07:02:51.113Z,48.40
2018-12-30T07:05:20.289Z,48.10
2018-12-30T07:07:49.505Z,48.10
2018-12-30T07:10:18.670Z,48.20
2018-12-30T07:12:47.907Z,48.00
2018-12-30T07:15:17.120Z,48.10
2018-12-30T07:17:46.351Z,47.80
2018-12-30T07:20:15.564Z,47.90
2018-12-30T07:22:44.725Z,48.00
2018-12-30T07:25:13.947Z,48.10
2018-12-30T07:27:43.552Z,48.10
2018-12-30T07:30:12.730Z,48.10
2018-12-30T07:32:41.895Z,48.20
2018-12-30T07:35:11.146Z,48.40
2018-12-30T07:37:40.353Z,48.40
2018-12-30T07:40:09.578Z,48.30
2018-12-30T07:42:38.793Z,48.30
2018-12-30T07:45:08.006Z,48.40
2018-12-30T07:47:37.205Z,48.40
2018-12-30T07:50:06.915Z,48.50
2018-12-30T07:52:36.429Z,48.50
2018-12-30T07:55:05.628Z,48.50
2018-12-30T07:57:35.454Z,48.30
2018-12-30T08:00:05.325Z,48.40
2018-12-30T08:02:34.555Z,48.50
2018-12-30T08:05:03.734Z,48.50
2018-12-30T08:07:32.956Z,48.60
2018-12-30T08:10:02.142Z,48.60
2018-12-30T08:12:31.338Z,48.60
2018-12-30T08:15:00.550Z,48.70
2018-12-30T08:17:29.754Z,48.70
2018-12-30T08:19:58.957Z,48.80
2018-12-30T08:22:28.176Z,48.80
2018-12-30T08:24:57.390Z,48.80
2018-12-30T08:27:26.542Z,48.90
2018-12-30T08:29:55.801Z,48.80
2018-12-30T08:32:24.936Z,48.80
2018-12-30T08:34:54.174Z,48.80
2018-12-30T08:37:23.430Z,48.40
2018-12-30T08:39:52.614Z,48.50
2018-12-30T08:42:21.826Z,48.30
2018-12-30T08:44:50.950Z,48.30
2018-12-30T08:47:20.115Z,48.20
2018-12-30T08:49:49.333Z,48.20
2018-12-30T08:52:18.577Z,48.20
2018-12-30T08:54:47.819Z,48.10
2018-12-30T08:57:17.002Z,47.80
2018-12-30T08:59:46.220Z,47.90
2018-12-30T09:02:15.438Z,47.70
2018-12-30T09:04:44.694Z,47.60
2018-12-30T09:07:13.913Z,47.40
2018-12-30T09:09:43.218Z,47.30
2018-12-30T09:12:12.354Z,47.40
2018-12-30T09:14:41.554Z,47.60
2018-12-30T09:17:10.716Z,47.60
2018-12-30T09:19:39.986Z,47.40
2018-12-30T09:22:09.158Z,47.40
2018-12-30T09:24:38.261Z,47.20
2018-12-30T09:27:07.749Z,47.20
2018-12-30T09:29:37.458Z,47.00
2018-12-30T09:32:06.661Z,46.80
2018-12-30T09:34:35.901Z,46.80
2018-12-30T09:37:05.150Z,46.80
2018-12-30T09:39:34.383Z,46.90
2018-12-30T09:42:03.600Z,47.10
2018-12-30T09:44:33.138Z,47.20
2018-12-30T09:47:02.350Z,47.50
2018-12-30T09:49:31.626Z,47.70
2018-12-30T09:52:00.805Z,47.90
2018-12-30T09:54:30.079Z,48.10
2018-12-30T09:56:59.250Z,48.10
2018-12-30T09:59:28.480Z,48.10
2018-12-30T10:01:57.717Z,48.20
2018-12-30T10:04:26.954Z,48.10
2018-12-30T10:06:56.172Z,48.00
2018-12-30T10:09:25.358Z,47.90
2018-12-30T10:11:54.501Z,47.90
2018-12-30T10:14:23.714Z,47.90
2018-12-30T10:16:52.934Z,48.00
2018-12-30T10:19:23.002Z,48.00
2018-12-30T10:21:52.191Z,48.10
2018-12-30T10:24:21.390Z,48.10
2018-12-30T10:26:50.597Z,48.30
2018-12-30T10:29:19.793Z,47.90
2018-12-30T10:31:49.485Z,48.20
2018-12-30T10:34:18.687Z,48.10
2018-12-30T10:36:48.202Z,48.30
2018-12-30T10:39:17.438Z,48.40
2018-12-30T10:41:46.656Z,48.40
2018-12-30T10:44:15.898Z,48.30
2018-12-30T10:46:45.129Z,48.00
2018-12-30T10:49:14.320Z,47.90
2018-12-30T10:51:43.557Z,48.10
2018-12-30T10:54:12.736Z,48.10
2018-12-30T10:56:41.910Z,48.30
2018-12-30T10:59:11.150Z,48.60
2018-12-30T11:01:40.383Z,49.40
2018-12-30T11:04:09.557Z,48.40
2018-12-30T11:06:38.706Z,49.50
2018-12-30T11:09:08.274Z,48.10
2018-12-30T11:11:37.522Z,47.20
2018-12-30T11:14:06.712Z,49.00
2018-12-30T11:16:35.918Z,48.30
2018-12-30T11:19:05.161Z,48.40
2018-12-30T11:21:34.371Z,49.20
2018-12-30T11:24:08.487Z,51.10
2018-12-30T11:26:34.424Z,51.50
2018-12-30T11:29:03.606Z,51.50
2018-12-30T11:31:32.852Z,51.50
2018-12-30T11:34:02.052Z,51.30
2018-12-30T11:36:31.274Z,51.30
2018-12-30T11:39:00.513Z,51.10
2018-12-30T11:41:29.706Z,51.00
2018-12-30T11:43:58.888Z,50.60
2018-12-30T11:46:28.144Z,50.50
2018-12-30T11:48:57.330Z,50.50
2018-12-30T11:51:26.546Z,50.40
2018-12-30T11:53:55.770Z,50.30
2018-12-30T11:56:24.979Z,50.90
2018-12-30T11:58:54.218Z,50.60
2018-12-30T12:01:23.406Z,50.30
2018-12-30T12:03:52.602Z,50.30
2018-12-30T12:06:22.079Z,50.30
2018-12-30T12:08:51.269Z,50.30
2018-12-30T12:11:20.497Z,50.40
2018-12-30T12:13:49.904Z,50.50
2018-12-30T12:16:19.061Z,50.30
2018-12-30T12:18:48.269Z,50.40
2018-12-30T12:21:17.445Z,49.60
2018-12-30T12:23:46.944Z,48.70
2018-12-30T12:26:16.153Z,48.90
2018-12-30T12:28:45.422Z,48.00
2018-12-30T12:31:14.684Z,48.00
2018-12-30T12:33:43.858Z,48.00
2018-12-30T12:36:13.078Z,47.70
2018-12-30T12:38:42.282Z,48.10
2018-12-30T12:41:11.471Z,47.40
2018-12-30T12:43:40.788Z,47.50
2018-12-30T12:46:10.022Z,48.00
2018-12-30T12:48:39.615Z,48.00
2018-12-30T12:51:08.869Z,47.70
2018-12-30T12:53:38.238Z,47.50
2018-12-30T12:56:07.502Z,47.70
2018-12-30T12:58:36.721Z,47.80
2018-12-30T13:01:05.970Z,47.80
2018-12-30T13:03:35.242Z,47.90
2018-12-30T13:06:04.544Z,47.90
2018-12-30T13:08:33.758Z,47.70
2018-12-30T13:11:03.065Z,47.90
2018-12-30T13:13:32.317Z,47.90
2018-12-30T13:16:03.531Z,47.60
2018-12-30T13:18:32.755Z,47.70
2018-12-30T13:21:01.990Z,47.60
2018-12-30T13:23:31.133Z,47.80
2018-12-30T13:26:00.261Z,47.90
2018-12-30T13:28:29.447Z,47.70
2018-12-30T13:30:58.701Z,47.80
2018-12-30T13:33:27.913Z,47.70
2018-12-30T13:35:57.197Z,47.90
2018-12-30T13:38:28.465Z,47.90
2018-12-30T13:40:57.549Z,48.10
2018-12-30T13:43:26.707Z,47.70
2018-12-30T13:45:55.837Z,47.90
2018-12-30T13:48:25.078Z,47.70
2018-12-30T13:50:54.292Z,47.70
2018-12-30T13:53:25.209Z,47.80
2018-12-30T13:55:54.414Z,47.60
2018-12-30T13:58:23.601Z,47.30
2018-12-30T14:00:52.875Z,47.40
2018-12-30T14:03:22.176Z,46.90
2018-12-30T14:05:51.394Z,46.90
2018-12-30T14:08:20.578Z,46.70
2018-12-30T14:10:49.702Z,46.60
2018-12-30T14:13:18.942Z,46.40
2018-12-30T14:15:51.087Z,46.40
2018-12-30T14:18:19.102Z,46.40
2018-12-30T14:20:48.322Z,46.30
2018-12-30T14:23:17.858Z,46.30
2018-12-30T14:25:47.051Z,46.20
2018-12-30T14:28:16.307Z,46.20
2018-12-30T14:30:45.581Z,46.50
2018-12-30T14:33:14.816Z,46.60
2018-12-30T14:35:44.050Z,46.70
2018-12-30T14:38:13.313Z,46.90
2018-12-30T14:40:42.866Z,46.90
2018-12-30T14:43:12.139Z,47.10
2018-12-30T14:45:41.380Z,46.90
2018-12-30T14:48:10.569Z,46.70
2018-12-30T14:50:39.858Z,46.90
2018-12-30T14:53:09.097Z,46.60
2018-12-30T14:55:38.297Z,46.90
2018-12-30T14:58:07.484Z,48.30
2018-12-30T15:00:36.699Z,47.40
2018-12-30T15:03:05.872Z,48.30
2018-12-30T15:05:35.162Z,48.90
2018-12-30T15:08:04.333Z,49.50
2018-12-30T15:10:33.507Z,49.50
2018-12-30T15:13:02.726Z,49.50
2018-12-30T15:15:31.905Z,49.50
2018-12-30T15:18:01.126Z,49.40
2018-12-30T15:20:30.293Z,49.40
2018-12-30T15:22:59.545Z,49.40
2018-12-30T15:25:28.686Z,49.40
2018-12-30T15:27:57.874Z,49.30
2018-12-30T15:30:27.108Z,49.20
2018-12-30T15:32:56.309Z,49.30
2018-12-30T15:35:25.502Z,49.20
2018-12-30T15:37:54.738Z,49.20
2018-12-30T15:40:24.022Z,49.20
2018-12-30T15:42:53.217Z,49.20
2018-12-30T15:45:22.434Z,49.20
2018-12-30T15:47:51.569Z,49.20
2018-12-30T15:50:20.795Z,49.10
2018-12-30T15:52:50.279Z,49.20
2018-12-30T15:55:19.790Z,49.10
2018-12-30T15:57:49.154Z,49.00
2018-12-30T16:00:18.385Z,48.90
2018-12-30T16:02:47.577Z,49.60
2018-12-30T16:05:16.870Z,49.30
2018-12-30T16:07:46.062Z,49.10
2018-12-30T16:10:15.225Z,49.10
2018-12-30T16:12:44.369Z,49.00
2018-12-30T16:15:13.606Z,49.00
2018-12-30T16:17:42.790Z,48.90
2018-12-30T16:20:12.028Z,48.90
2018-12-30T16:22:41.249Z,48.90
2018-12-30T16:25:10.695Z,48.90
2018-12-30T16:27:39.946Z,48.90
2018-12-30T16:30:09.898Z,48.90
2018-12-30T16:32:39.006Z,48.90
2018-12-30T16:35:08.206Z,48.90
2018-12-30T16:37:37.405Z,49.40
2018-12-30T16:40:06.729Z,50.50
2018-12-30T16:42:35.999Z,49.80
2018-12-30T16:45:05.581Z,49.40
2018-12-30T16:47:41.603Z,49.20
2018-12-30T16:50:06.383Z,49.20
2018-12-30T16:52:35.559Z,49.30
2018-12-30T16:55:04.803Z,49.40
2018-12-30T16:57:34.011Z,49.10
2018-12-30T17:00:03.229Z,49.00
2018-12-30T17:02:32.435Z,48.90
2018-12-30T17:05:01.650Z,48.90
2018-12-30T17:07:30.904Z,49.40
2018-12-30T17:10:00.091Z,48.80
2018-12-30T17:12:29.394Z,48.80
2018-12-30T17:14:58.618Z,48.80
2018-12-30T17:17:28.062Z,48.80
2018-12-30T17:19:57.319Z,48.70
2018-12-30T17:22:27.611Z,48.80
2018-12-30T17:24:56.830Z,48.80
2018-12-30T17:27:26.089Z,48.80
2018-12-30T17:29:55.335Z,48.90
2018-12-30T17:32:24.543Z,48.80
2018-12-30T17:34:53.733Z,48.80
2018-12-30T17:37:22.948Z,48.80
2018-12-30T17:39:52.187Z,48.80
2018-12-30T17:42:21.446Z,48.80
2018-12-30T17:44:50.662Z,48.70
2018-12-30T17:47:19.896Z,48.80
2018-12-30T17:49:49.454Z,48.80
2018-12-30T17:52:18.678Z,48.80
2018-12-30T17:54:47.971Z,48.80
2018-12-30T17:57:18.298Z,48.80
2018-12-30T17:59:47.528Z,48.80
2018-12-30T18:02:16.978Z,48.70
2018-12-30T18:04:46.190Z,48.60
2018-12-30T18:07:15.413Z,48.60
2018-12-30T18:09:44.667Z,48.60
2018-12-30T18:12:13.871Z,48.40
2018-12-30T18:14:43.108Z,48.90
2018-12-30T18:17:12.323Z,48.70
2018-12-30T18:19:41.904Z,48.60
2018-12-30T18:22:11.121Z,48.60
2018-12-30T18:24:40.611Z,48.60
2018-12-30T18:27:10.090Z,48.60
2018-12-30T18:29:39.294Z,48.60
2018-12-30T18:32:08.562Z,48.50
2018-12-30T18:34:37.727Z,48.50
2018-12-30T18:37:06.915Z,48.50
2018-12-30T18:39:36.134Z,48.40
2018-12-30T18:42:05.349Z,47.80
2018-12-30T18:44:34.551Z,47.00
2018-12-30T18:47:04.123Z,47.20
2018-12-30T18:49:33.321Z,47.20
2018-12-30T18:52:02.538Z,47.40
2018-12-30T18:54:31.774Z,47.50
2018-12-30T18:57:00.978Z,47.50
2018-12-30T18:59:30.167Z,47.50
2018-12-30T19:01:59.386Z,47.70
2018-12-30T19:04:29.018Z,47.60
2018-12-30T19:06:58.845Z,47.70
2018-12-30T19:09:28.179Z,47.70
2018-12-30T19:11:57.754Z,47.70
2018-12-30T19:14:27.770Z,47.70
2018-12-30T19:16:57.105Z,47.70
2018-12-30T19:19:26.455Z,47.60
2018-12-30T19:21:55.695Z,47.70
2018-12-30T19:24:25.819Z,47.70
2018-12-30T19:26:56.330Z,47.80
2018-12-30T19:29:25.567Z,47.90
2018-12-30T19:32:00.650Z,47.90
2018-12-30T19:34:29.922Z,47.90
2018-12-30T19:36:59.230Z,47.90
2018-12-30T19:39:28.827Z,48.10
2018-12-30T19:41:58.166Z,47.90
2018-12-30T19:44:27.446Z,48.00
2018-12-30T19:46:56.685Z,48.10
2018-12-30T19:49:25.937Z,47.70
2018-12-30T19:51:55.162Z,46.60
2018-12-30T19:54:24.398Z,46.40
2018-12-30T19:56:53.643Z,45.80
2018-12-30T19:59:22.901Z,45.40
2018-12-30T20:02:31.345Z,45.30
2018-12-30T20:05:00.567Z,45.10
2018-12-30T20:07:29.820Z,45.40
2018-12-30T20:09:59.130Z,45.70
2018-12-30T20:12:28.346Z,46.60
2018-12-30T20:14:57.514Z,46.60
2018-12-30T20:17:26.747Z,50.10
2018-12-30T20:19:56.035Z,50.00
2018-12-30T20:22:25.318Z,50.10
2018-12-30T20:24:54.538Z,49.20
2018-12-30T20:27:23.811Z,48.30
2018-12-30T20:29:52.971Z,48.70
2018-12-30T20:32:22.494Z,48.70
2018-12-30T20:34:51.722Z,48.80
2018-12-30T20:37:20.954Z,48.70
2018-12-30T20:39:50.181Z,48.70
2018-12-30T20:42:19.742Z,48.60
2018-12-30T20:44:48.961Z,48.30
2018-12-30T20:47:18.208Z,48.30
2018-12-30T20:49:47.418Z,48.40
2018-12-30T20:52:16.647Z,48.30
2018-12-30T20:54:45.915Z,48.30
2018-12-30T20:57:15.195Z,48.30
2018-12-30T20:59:44.411Z,48.10
2018-12-30T21:02:13.921Z,48.10
2018-12-30T21:04:43.126Z,48.40
2018-12-30T21:07:12.419Z,48.30
2018-12-30T21:09:41.731Z,48.40
2018-12-30T21:12:10.898Z,48.50
2018-12-30T21:14:40.158Z,48.60
2018-12-30T21:17:09.414Z,48.60
2018-12-30T21:19:38.650Z,48.60
2018-12-30T21:22:07.789Z,48.60
2018-12-30T21:24:36.985Z,48.60
2018-12-30T21:27:06.237Z,48.60
2018-12-30T21:29:36.801Z,48.60
2018-12-30T21:32:06.237Z,48.70
2018-12-30T21:34:35.525Z,48.40
2018-12-30T21:37:04.717Z,48.40
2018-12-30T21:39:33.883Z,48.40
2018-12-30T21:42:03.350Z,48.30
2018-12-30T21:44:32.691Z,48.30
2018-12-30T21:47:01.900Z,48.30
2018-12-30T21:49:31.152Z,48.50
2018-12-30T21:52:00.339Z,48.50
2018-12-30T21:54:29.535Z,48.50
2018-12-30T21:56:59.047Z,48.30
2018-12-30T21:59:28.274Z,48.30
2018-12-30T22:01:57.500Z,48.20
2018-12-30T22:04:26.793Z,47.90
2018-12-30T22:06:55.995Z,47.80
2018-12-30T22:09:26.355Z,47.50
2018-12-30T22:11:56.918Z,47.20
2018-12-30T22:14:26.118Z,47.70
2018-12-30T22:16:55.370Z,47.70
2018-12-30T22:19:24.581Z,47.70
2018-12-30T22:21:53.834Z,47.50
2018-12-30T22:24:23.074Z,47.80
2018-12-30T22:26:52.305Z,47.80
2018-12-30T22:29:21.826Z,47.80
2018-12-30T22:31:51.079Z,47.90
2018-12-30T22:34:20.276Z,48.10
2018-12-30T22:36:49.706Z,48.00
2018-12-30T22:39:19.265Z,48.80
2018-12-30T22:41:48.807Z,48.50
2018-12-30T22:44:18.067Z,48.50
2018-12-30T22:46:47.256Z,48.60
2018-12-30T22:49:16.478Z,48.60
2018-12-30T22:51:45.661Z,48.70
2018-12-30T22:54:14.877Z,48.50
2018-12-30T22:56:44.099Z,48.60
2018-12-30T22:59:13.291Z,48.50
2018-12-30T23:01:44.230Z,48.60
2018-12-30T23:04:13.466Z,48.60
2018-12-30T23:06:42.753Z,48.50
2018-12-30T23:09:11.914Z,48.50
2018-12-30T23:11:41.125Z,48.50
2018-12-30T23:14:10.358Z,48.70
2018-12-30T23:16:39.606Z,48.50
2018-12-30T23:19:08.830Z,48.60
2018-12-30T23:21:38.097Z,48.30
2018-12-30T23:24:07.315Z,48.20
2018-12-30T23:26:36.531Z,48.20
2018-12-30T23:29:05.733Z,47.90
2018-12-30T23:31:34.938Z,48.00
2018-12-30T23:34:04.158Z,47.90
2018-12-30T23:36:33.355Z,48.00
2018-12-30T23:39:02.530Z,47.80
2018-12-30T23:41:32.097Z,48.00
2018-12-30T23:44:01.305Z,48.10
2018-12-30T23:46:31.016Z,48.20
2018-12-30T23:49:00.205Z,48.80
2018-12-30T23:51:29.470Z,49.20
2018-12-30T23:53:58.713Z,49.30
2018-12-30T23:56:27.943Z,49.70
2018-12-30T23:58:57.125Z,49.80
